sensor_id;sensor_type;location;lat;lon;timestamp;P1;durP1;ratioP1;P2;durP2;ratioP2
29382;SDS011;16365;51.598;7.668;2022-09-06T00:01:48;2.47;;;1.80;;
29382;SDS011;16365;51.598;7.668;2022-09-06T00:04:15;5.97;;;2.10;;
29382;SDS011;16365;51.598;7.668;2022-09-06T00:06:42;2.58;;;1.80;;
29382;SDS011;16365;51.598;7.668;2022-09-06T00:09:08;5.35;;;2.28;;
29382;SDS011;16365;51.598;7.668;2022-09-06T00:11:35;3.95;;;2.30;;
29382;SDS011;16365;51.598;7.668;2022-09-06T00:14:02;5.00;;;2.10;;
29382;SDS011;16365;51.598;7.668;2022-09-06T00:16:28;4.00;;;2.60;;
29382;SDS011;16365;51.598;7.668;2022-09-06T00:18:55;7.22;;;2.38;;
29382;SDS011;16365;51.598;7.668;2022-09-06T00:21:31;4.82;;;2.58;;
29382;SDS011;16365;51.598;7.668;2022-09-06T00:23:57;7.05;;;2.42;;
29382;SDS011;16365;51.598;7.668;2022-09-06T00:26:24;5.13;;;1.92;;
29382;SDS011;16365;51.598;7.668;2022-09-06T00:28:50;4.28;;;2.10;;
29382;SDS011;16365;51.598;7.668;2022-09-06T00:31:18;3.60;;;2.50;;
29382;SDS011;16365;51.598;7.668;2022-09-06T00:33:49;4.05;;;2.10;;
29382;SDS011;16365;51.598;7.668;2022-09-06T00:36:16;5.22;;;2.20;;
29382;SDS011;16365;51.598;7.668;2022-09-06T00:38:43;3.22;;;1.90;;
29382;SDS011;16365;51.598;7.668;2022-09-06T00:41:11;8.85;;;2.35;;
29382;SDS011;16365;51.598;7.668;2022-09-06T00:43:39;3.75;;;2.38;;
29382;SDS011;16365;51.598;7.668;2022-09-06T00:46:08;2.40;;;2.00;;
29382;SDS011;16365;51.598;7.668;2022-09-06T00:48:40;5.45;;;2.00;;
29382;SDS011;16365;51.598;7.668;2022-09-06T00:51:08;6.05;;;2.50;;
29382;SDS011;16365;51.598;7.668;2022-09-06T00:53:37;3.55;;;2.17;;
29382;SDS011;16365;51.598;7.668;2022-09-06T00:56:04;2.67;;;2.30;;
29382;SDS011;16365;51.598;7.668;2022-09-06T00:58:32;5.18;;;2.08;;
29382;SDS011;16365;51.598;7.668;2022-09-06T01:00:59;4.05;;;2.38;;
29382;SDS011;16365;51.598;7.668;2022-09-06T01:03:25;10.05;;;2.72;;
29382;SDS011;16365;51.598;7.668;2022-09-06T01:11:37;4.80;;;2.00;;
29382;SDS011;16365;51.598;7.668;2022-09-06T01:16:44;3.90;;;2.10;;
29382;SDS011;16365;51.598;7.668;2022-09-06T01:25:02;4.40;;;1.95;;
29382;SDS011;16365;51.598;7.668;2022-09-06T01:27:56;5.40;;;2.08;;
29382;SDS011;16365;51.598;7.668;2022-09-06T01:30:36;2.60;;;1.95;;
29382;SDS011;16365;51.598;7.668;2022-09-06T01:33:12;9.48;;;2.20;;
29382;SDS011;16365;51.598;7.668;2022-09-06T01:35:58;5.45;;;2.15;;
29382;SDS011;16365;51.598;7.668;2022-09-06T01:38:27;5.30;;;2.30;;
29382;SDS011;16365;51.598;7.668;2022-09-06T01:40:54;4.60;;;2.03;;
29382;SDS011;16365;51.598;7.668;2022-09-06T01:43:23;2.67;;;1.90;;
29382;SDS011;16365;51.598;7.668;2022-09-06T01:48:39;3.70;;;2.15;;
29382;SDS011;16365;51.598;7.668;2022-09-06T01:51:14;5.85;;;2.20;;
29382;SDS011;16365;51.598;7.668;2022-09-06T02:07:14;2.35;;;2.10;;
29382;SDS011;16365;51.598;7.668;2022-09-06T02:09:47;4.95;;;2.42;;
29382;SDS011;16365;51.598;7.668;2022-09-06T02:12:17;3.20;;;2.10;;
29382;SDS011;16365;51.598;7.668;2022-09-06T02:14:51;4.20;;;2.30;;
29382;SDS011;16365;51.598;7.668;2022-09-06T02:17:24;4.15;;;2.30;;
29382;SDS011;16365;51.598;7.668;2022-09-06T02:19:57;3.83;;;2.35;;
29382;SDS011;16365;51.598;7.668;2022-09-06T02:22:28;3.22;;;2.10;;
29382;SDS011;16365;51.598;7.668;2022-09-06T02:24:59;5.03;;;2.08;;
29382;SDS011;16365;51.598;7.668;2022-09-06T02:27:27;5.53;;;2.20;;
29382;SDS011;16365;51.598;7.668;2022-09-06T02:29:56;5.88;;;2.70;;
29382;SDS011;16365;51.598;7.668;2022-09-06T02:32:23;6.30;;;2.00;;
29382;SDS011;16365;51.598;7.668;2022-09-06T02:34:52;2.53;;;2.03;;
29382;SDS011;16365;51.598;7.668;2022-09-06T02:37:21;6.10;;;2.50;;
29382;SDS011;16365;51.598;7.668;2022-09-06T02:39:51;3.40;;;2.28;;
29382;SDS011;16365;51.598;7.668;2022-09-06T02:42:21;5.93;;;2.30;;
29382;SDS011;16365;51.598;7.668;2022-09-06T02:44:49;2.45;;;2.17;;
29382;SDS011;16365;51.598;7.668;2022-09-06T02:47:15;4.43;;;2.78;;
29382;SDS011;16365;51.598;7.668;2022-09-06T02:49:42;5.25;;;2.38;;
29382;SDS011;16365;51.598;7.668;2022-09-06T02:52:08;4.45;;;2.42;;
29382;SDS011;16365;51.598;7.668;2022-09-06T02:54:35;4.70;;;2.28;;
29382;SDS011;16365;51.598;7.668;2022-09-06T02:57:02;4.47;;;2.40;;
29382;SDS011;16365;51.598;7.668;2022-09-06T02:59:28;3.58;;;2.30;;
29382;SDS011;16365;51.598;7.668;2022-09-06T03:01:55;2.65;;;2.10;;
29382;SDS011;16365;51.598;7.668;2022-09-06T03:04:21;3.20;;;2.20;;
29382;SDS011;16365;51.598;7.668;2022-09-06T03:06:48;4.72;;;2.53;;
29382;SDS011;16365;51.598;7.668;2022-09-06T03:09:14;6.95;;;2.50;;
29382;SDS011;16365;51.598;7.668;2022-09-06T03:11:41;6.95;;;2.30;;
29382;SDS011;16365;51.598;7.668;2022-09-06T03:14:08;4.15;;;2.35;;
29382;SDS011;16365;51.598;7.668;2022-09-06T03:16:34;4.38;;;2.30;;
29382;SDS011;16365;51.598;7.668;2022-09-06T03:19:03;3.83;;;2.22;;
29382;SDS011;16365;51.598;7.668;2022-09-06T03:21:29;7.10;;;2.30;;
29382;SDS011;16365;51.598;7.668;2022-09-06T03:23:56;6.95;;;2.08;;
29382;SDS011;16365;51.598;7.668;2022-09-06T03:26:24;4.03;;;2.35;;
29382;SDS011;16365;51.598;7.668;2022-09-06T03:28:51;4.07;;;2.10;;
29382;SDS011;16365;51.598;7.668;2022-09-06T03:31:18;5.63;;;2.60;;
29382;SDS011;16365;51.598;7.668;2022-09-06T03:33:45;5.28;;;2.33;;
29382;SDS011;16365;51.598;7.668;2022-09-06T03:36:11;4.25;;;2.30;;
29382;SDS011;16365;51.598;7.668;2022-09-06T03:38:38;4.95;;;2.15;;
29382;SDS011;16365;51.598;7.668;2022-09-06T03:41:05;6.65;;;2.50;;
29382;SDS011;16365;51.598;7.668;2022-09-06T03:43:31;5.25;;;2.50;;
29382;SDS011;16365;51.598;7.668;2022-09-06T03:45:59;4.75;;;2.40;;
29382;SDS011;16365;51.598;7.668;2022-09-06T03:48:27;4.63;;;2.58;;
29382;SDS011;16365;51.598;7.668;2022-09-06T03:50:56;5.53;;;2.55;;
29382;SDS011;16365;51.598;7.668;2022-09-06T03:53:24;6.80;;;2.63;;
29382;SDS011;16365;51.598;7.668;2022-09-06T03:58:20;7.03;;;2.43;;
29382;SDS011;16365;51.598;7.668;2022-09-06T04:03:14;5.95;;;2.55;;
29382;SDS011;16365;51.598;7.668;2022-09-06T04:05:44;4.50;;;2.50;;
29382;SDS011;16365;51.598;7.668;2022-09-06T04:08:11;8.05;;;2.80;;
29382;SDS011;16365;51.598;7.668;2022-09-06T04:10:38;7.07;;;2.88;;
29382;SDS011;16365;51.598;7.668;2022-09-06T04:13:05;4.55;;;2.67;;
29382;SDS011;16365;51.598;7.668;2022-09-06T04:15:31;6.95;;;3.28;;
29382;SDS011;16365;51.598;7.668;2022-09-06T04:17:58;5.78;;;2.88;;
29382;SDS011;16365;51.598;7.668;2022-09-06T04:20:25;7.60;;;3.00;;
29382;SDS011;16365;51.598;7.668;2022-09-06T04:22:51;5.63;;;2.70;;
29382;SDS011;16365;51.598;7.668;2022-09-06T04:25:18;5.15;;;2.90;;
29382;SDS011;16365;51.598;7.668;2022-09-06T04:27:45;10.98;;;3.70;;
29382;SDS011;16365;51.598;7.668;2022-09-06T04:30:11;8.25;;;3.22;;
29382;SDS011;16365;51.598;7.668;2022-09-06T04:32:38;13.40;;;4.85;;
29382;SDS011;16365;51.598;7.668;2022-09-06T04:35:05;5.30;;;2.97;;
29382;SDS011;16365;51.598;7.668;2022-09-06T04:37:31;11.90;;;3.85;;
29382;SDS011;16365;51.598;7.668;2022-09-06T04:39:58;9.60;;;2.97;;
29382;SDS011;16365;51.598;7.668;2022-09-06T04:42:25;5.97;;;3.53;;
29382;SDS011;16365;51.598;7.668;2022-09-06T04:44:51;8.15;;;3.00;;
29382;SDS011;16365;51.598;7.668;2022-09-06T04:47:18;5.30;;;2.75;;
29382;SDS011;16365;51.598;7.668;2022-09-06T04:49:45;9.13;;;2.72;;
29382;SDS011;16365;51.598;7.668;2022-09-06T04:52:14;11.52;;;2.75;;
29382;SDS011;16365;51.598;7.668;2022-09-06T04:54:41;12.13;;;3.30;;
29382;SDS011;16365;51.598;7.668;2022-09-06T04:57:08;10.32;;;3.17;;
29382;SDS011;16365;51.598;7.668;2022-09-06T04:59:34;13.80;;;3.90;;
29382;SDS011;16365;51.598;7.668;2022-09-06T05:02:01;7.47;;;3.05;;
29382;SDS011;16365;51.598;7.668;2022-09-06T05:04:28;9.18;;;3.35;;
29382;SDS011;16365;51.598;7.668;2022-09-06T05:07:05;15.05;;;3.38;;
29382;SDS011;16365;51.598;7.668;2022-09-06T05:09:33;11.68;;;2.67;;
29382;SDS011;16365;51.598;7.668;2022-09-06T05:12:00;13.38;;;3.30;;
29382;SDS011;16365;51.598;7.668;2022-09-06T05:14:27;11.63;;;3.85;;
29382;SDS011;16365;51.598;7.668;2022-09-06T05:16:54;5.27;;;3.23;;
29382;SDS011;16365;51.598;7.668;2022-09-06T05:19:21;5.13;;;3.28;;
29382;SDS011;16365;51.598;7.668;2022-09-06T05:21:49;9.70;;;3.70;;
29382;SDS011;16365;51.598;7.668;2022-09-06T05:24:16;7.13;;;2.80;;
29382;SDS011;16365;51.598;7.668;2022-09-06T05:26:42;7.45;;;3.10;;
29382;SDS011;16365;51.598;7.668;2022-09-06T05:29:09;4.82;;;3.00;;
29382;SDS011;16365;51.598;7.668;2022-09-06T05:31:35;6.97;;;2.80;;
29382;SDS011;16365;51.598;7.668;2022-09-06T05:34:02;16.55;;;3.45;;
29382;SDS011;16365;51.598;7.668;2022-09-06T05:36:29;5.82;;;2.90;;
29382;SDS011;16365;51.598;7.668;2022-09-06T05:38:56;11.98;;;3.45;;
29382;SDS011;16365;51.598;7.668;2022-09-06T05:41:23;5.45;;;2.70;;
29382;SDS011;16365;51.598;7.668;2022-09-06T05:43:51;8.70;;;2.73;;
29382;SDS011;16365;51.598;7.668;2022-09-06T05:46:17;7.53;;;2.90;;
29382;SDS011;16365;51.598;7.668;2022-09-06T05:48:51;9.18;;;3.40;;
29382;SDS011;16365;51.598;7.668;2022-09-06T05:51:23;5.53;;;2.97;;
29382;SDS011;16365;51.598;7.668;2022-09-06T05:53:49;6.55;;;2.53;;
29382;SDS011;16365;51.598;7.668;2022-09-06T05:56:16;5.20;;;2.75;;
29382;SDS011;16365;51.598;7.668;2022-09-06T05:58:44;6.72;;;3.03;;
29382;SDS011;16365;51.598;7.668;2022-09-06T06:01:18;3.95;;;2.72;;
29382;SDS011;16365;51.598;7.668;2022-09-06T06:06:18;5.27;;;2.73;;
29382;SDS011;16365;51.598;7.668;2022-09-06T06:08:45;9.40;;;2.65;;
29382;SDS011;16365;51.598;7.668;2022-09-06T06:11:12;7.20;;;3.08;;
29382;SDS011;16365;51.598;7.668;2022-09-06T06:13:39;8.95;;;3.22;;
29382;SDS011;16365;51.598;7.668;2022-09-06T06:16:06;10.10;;;3.15;;
29382;SDS011;16365;51.598;7.668;2022-09-06T06:18:37;7.63;;;2.78;;
29382;SDS011;16365;51.598;7.668;2022-09-06T06:23:39;8.60;;;3.22;;
29382;SDS011;16365;51.598;7.668;2022-09-06T06:26:07;11.77;;;3.10;;
29382;SDS011;16365;51.598;7.668;2022-09-06T06:28:35;10.82;;;2.97;;
29382;SDS011;16365;51.598;7.668;2022-09-06T06:31:02;9.07;;;3.30;;
29382;SDS011;16365;51.598;7.668;2022-09-06T06:33:29;13.70;;;4.13;;
29382;SDS011;16365;51.598;7.668;2022-09-06T06:36:04;11.75;;;3.38;;
29382;SDS011;16365;51.598;7.668;2022-09-06T06:38:33;6.43;;;3.22;;
29382;SDS011;16365;51.598;7.668;2022-09-06T06:41:03;5.53;;;3.22;;
29382;SDS011;16365;51.598;7.668;2022-09-06T06:43:32;8.40;;;3.20;;
29382;SDS011;16365;51.598;7.668;2022-09-06T06:46:03;7.78;;;3.83;;
29382;SDS011;16365;51.598;7.668;2022-09-06T06:48:31;6.45;;;3.15;;
29382;SDS011;16365;51.598;7.668;2022-09-06T06:50:57;6.80;;;3.38;;
29382;SDS011;16365;51.598;7.668;2022-09-06T06:53:24;5.57;;;2.90;;
29382;SDS011;16365;51.598;7.668;2022-09-06T06:55:51;5.20;;;2.95;;
29382;SDS011;16365;51.598;7.668;2022-09-06T06:58:17;7.63;;;2.83;;
29382;SDS011;16365;51.598;7.668;2022-09-06T07:00:44;4.72;;;2.97;;
29382;SDS011;16365;51.598;7.668;2022-09-06T07:03:11;15.73;;;3.70;;
29382;SDS011;16365;51.598;7.668;2022-09-06T07:05:38;7.60;;;2.95;;
29382;SDS011;16365;51.598;7.668;2022-09-06T07:08:28;7.40;;;3.47;;
29382;SDS011;16365;51.598;7.668;2022-09-06T07:10:54;5.57;;;2.40;;
29382;SDS011;16365;51.598;7.668;2022-09-06T07:13:21;7.65;;;2.97;;
29382;SDS011;16365;51.598;7.668;2022-09-06T07:15:48;9.32;;;3.00;;
29382;SDS011;16365;51.598;7.668;2022-09-06T07:18:15;13.13;;;2.70;;
29382;SDS011;16365;51.598;7.668;2022-09-06T07:20:41;8.18;;;2.95;;
29382;SDS011;16365;51.598;7.668;2022-09-06T07:23:28;7.53;;;2.95;;
29382;SDS011;16365;51.598;7.668;2022-09-06T07:26:15;3.25;;;2.50;;
29382;SDS011;16365;51.598;7.668;2022-09-06T07:28:47;4.60;;;2.45;;
29382;SDS011;16365;51.598;7.668;2022-09-06T07:31:17;5.13;;;2.47;;
29382;SDS011;16365;51.598;7.668;2022-09-06T07:34:03;8.32;;;2.50;;
29382;SDS011;16365;51.598;7.668;2022-09-06T07:36:30;7.88;;;2.75;;
29382;SDS011;16365;51.598;7.668;2022-09-06T07:38:57;5.35;;;2.80;;
29382;SDS011;16365;51.598;7.668;2022-09-06T07:41:24;13.43;;;2.72;;
29382;SDS011;16365;51.598;7.668;2022-09-06T07:43:53;18.17;;;4.10;;
29382;SDS011;16365;51.598;7.668;2022-09-06T07:46:20;7.47;;;2.88;;
29382;SDS011;16365;51.598;7.668;2022-09-06T07:48:47;7.25;;;2.80;;
29382;SDS011;16365;51.598;7.668;2022-09-06T07:51:18;9.80;;;1.85;;
29382;SDS011;16365;51.598;7.668;2022-09-06T07:53:50;5.18;;;1.88;;
29382;SDS011;16365;51.598;7.668;2022-09-06T07:56:37;6.93;;;2.30;;
29382;SDS011;16365;51.598;7.668;2022-09-06T07:59:04;6.10;;;1.88;;
29382;SDS011;16365;51.598;7.668;2022-09-06T08:01:32;5.80;;;1.63;;
29382;SDS011;16365;51.598;7.668;2022-09-06T08:04:05;3.83;;;1.90;;
29382;SDS011;16365;51.598;7.668;2022-09-06T08:06:35;4.03;;;1.65;;
29382;SDS011;16365;51.598;7.668;2022-09-06T08:09:23;3.53;;;1.83;;
29382;SDS011;16365;51.598;7.668;2022-09-06T08:11:50;7.27;;;2.23;;
29382;SDS011;16365;51.598;7.668;2022-09-06T08:14:18;4.13;;;1.90;;
29382;SDS011;16365;51.598;7.668;2022-09-06T08:16:45;3.55;;;1.88;;
29382;SDS011;16365;51.598;7.668;2022-09-06T08:19:12;3.83;;;1.60;;
29382;SDS011;16365;51.598;7.668;2022-09-06T08:21:39;3.40;;;1.50;;
29382;SDS011;16365;51.598;7.668;2022-09-06T08:24:06;3.38;;;1.90;;
29382;SDS011;16365;51.598;7.668;2022-09-06T08:26:35;4.57;;;1.50;;
29382;SDS011;16365;51.598;7.668;2022-09-06T08:29:05;3.28;;;2.22;;
29382;SDS011;16365;51.598;7.668;2022-09-06T08:31:35;14.07;;;3.67;;
29382;SDS011;16365;51.598;7.668;2022-09-06T08:34:03;27.90;;;3.40;;
29382;SDS011;16365;51.598;7.668;2022-09-06T08:36:30;14.60;;;2.60;;
29382;SDS011;16365;51.598;7.668;2022-09-06T08:38:58;7.90;;;2.13;;
29382;SDS011;16365;51.598;7.668;2022-09-06T08:44:03;1.83;;;1.20;;
29382;SDS011;16365;51.598;7.668;2022-09-06T08:46:54;4.88;;;1.27;;
29382;SDS011;16365;51.598;7.668;2022-09-06T08:49:24;3.90;;;1.17;;
29382;SDS011;16365;51.598;7.668;2022-09-06T09:00:05;1.73;;;1.00;;
29382;SDS011;16365;51.598;7.668;2022-09-06T09:02:44;4.10;;;1.30;;
29382;SDS011;16365;51.598;7.668;2022-09-06T09:05:21;2.83;;;1.10;;
29382;SDS011;16365;51.598;7.668;2022-09-06T09:07:58;2.95;;;0.90;;
29382;SDS011;16365;51.598;7.668;2022-09-06T09:10:26;6.03;;;2.03;;
29382;SDS011;16365;51.598;7.668;2022-09-06T09:12:55;2.22;;;1.30;;
29382;SDS011;16365;51.598;7.668;2022-09-06T09:15:22;2.40;;;1.58;;
29382;SDS011;16365;51.598;7.668;2022-09-06T09:17:50;3.72;;;1.55;;
29382;SDS011;16365;51.598;7.668;2022-09-06T09:20:18;2.47;;;1.48;;
29382;SDS011;16365;51.598;7.668;2022-09-06T09:22:46;2.50;;;1.40;;
29382;SDS011;16365;51.598;7.668;2022-09-06T09:25:17;6.45;;;1.23;;
29382;SDS011;16365;51.598;7.668;2022-09-06T09:27:47;1.83;;;1.20;;
29382;SDS011;16365;51.598;7.668;2022-09-06T09:30:24;5.28;;;1.40;;
29382;SDS011;16365;51.598;7.668;2022-09-06T09:36:03;5.13;;;1.40;;
29382;SDS011;16365;51.598;7.668;2022-09-06T09:38:39;2.42;;;1.30;;
29382;SDS011;16365;51.598;7.668;2022-09-06T09:41:27;7.28;;;1.40;;
29382;SDS011;16365;51.598;7.668;2022-09-06T09:44:00;5.95;;;1.35;;
29382;SDS011;16365;51.598;7.668;2022-09-06T09:46:31;1.48;;;1.23;;
29382;SDS011;16365;51.598;7.668;2022-09-06T09:49:07;3.60;;;1.20;;
29382;SDS011;16365;51.598;7.668;2022-09-06T09:51:37;4.22;;;1.23;;
29382;SDS011;16365;51.598;7.668;2022-09-06T09:54:31;2.45;;;1.10;;
29382;SDS011;16365;51.598;7.668;2022-09-06T09:57:00;6.72;;;1.30;;
29382;SDS011;16365;51.598;7.668;2022-09-06T09:59:29;3.47;;;1.40;;
29382;SDS011;16365;51.598;7.668;2022-09-06T10:14:58;7.43;;;1.58;;
29382;SDS011;16365;51.598;7.668;2022-09-06T10:17:46;3.70;;;1.20;;
29382;SDS011;16365;51.598;7.668;2022-09-06T10:20:15;4.97;;;1.33;;
29382;SDS011;16365;51.598;7.668;2022-09-06T10:25:45;3.85;;;1.13;;
29382;SDS011;16365;51.598;7.668;2022-09-06T10:28:27;1.67;;;1.27;;
29382;SDS011;16365;51.598;7.668;2022-09-06T10:33:36;4.57;;;1.05;;
29382;SDS011;16365;51.598;7.668;2022-09-06T10:36:18;3.30;;;1.42;;
29382;SDS011;16365;51.598;7.668;2022-09-06T10:38:51;2.42;;;1.15;;
29382;SDS011;16365;51.598;7.668;2022-09-06T10:49:25;3.28;;;1.17;;
29382;SDS011;16365;51.598;7.668;2022-09-06T10:51:55;2.63;;;0.98;;
29382;SDS011;16365;51.598;7.668;2022-09-06T10:54:25;4.88;;;1.17;;
29382;SDS011;16365;51.598;7.668;2022-09-06T10:56:56;20.27;;;2.45;;
29382;SDS011;16365;51.598;7.668;2022-09-06T10:59:34;4.78;;;1.17;;
29382;SDS011;16365;51.598;7.668;2022-09-06T11:04:47;11.13;;;1.10;;
29382;SDS011;16365;51.598;7.668;2022-09-06T11:07:36;6.80;;;1.17;;
29382;SDS011;16365;51.598;7.668;2022-09-06T11:15:14;2.20;;;0.90;;
29382;SDS011;16365;51.598;7.668;2022-09-06T11:17:47;6.28;;;0.98;;
29382;SDS011;16365;51.598;7.668;2022-09-06T11:20:31;3.47;;;1.08;;
29382;SDS011;16365;51.598;7.668;2022-09-06T11:23:09;4.75;;;1.00;;
29382;SDS011;16365;51.598;7.668;2022-09-06T11:28:57;2.40;;;1.13;;
29382;SDS011;16365;51.598;7.668;2022-09-06T11:31:26;9.82;;;1.40;;
29382;SDS011;16365;51.598;7.668;2022-09-06T11:34:24;1.85;;;1.02;;
29382;SDS011;16365;51.598;7.668;2022-09-06T11:36:54;3.28;;;0.93;;
29382;SDS011;16365;51.598;7.668;2022-09-06T11:39:35;2.85;;;0.90;;
29382;SDS011;16365;51.598;7.668;2022-09-06T11:45:21;2.42;;;1.30;;
29382;SDS011;16365;51.598;7.668;2022-09-06T11:53:22;3.70;;;1.10;;
29382;SDS011;16365;51.598;7.668;2022-09-06T11:58:32;22.25;;;1.75;;
29382;SDS011;16365;51.598;7.668;2022-09-06T12:06:29;2.75;;;1.45;;
29382;SDS011;16365;51.598;7.668;2022-09-06T12:08:58;2.85;;;1.02;;
29382;SDS011;16365;51.598;7.668;2022-09-06T12:14:18;4.00;;;1.27;;
29382;SDS011;16365;51.598;7.668;2022-09-06T12:25:02;1.02;;;0.82;;
29382;SDS011;16365;51.598;7.668;2022-09-06T12:28:20;3.53;;;1.50;;
29382;SDS011;16365;51.598;7.668;2022-09-06T12:30:50;4.13;;;1.08;;
29382;SDS011;16365;51.598;7.668;2022-09-06T12:33:30;5.45;;;1.13;;
29382;SDS011;16365;51.598;7.668;2022-09-06T12:36:11;2.03;;;0.93;;
29382;SDS011;16365;51.598;7.668;2022-09-06T12:38:55;1.58;;;1.00;;
29382;SDS011;16365;51.598;7.668;2022-09-06T12:41:36;1.43;;;1.07;;
29382;SDS011;16365;51.598;7.668;2022-09-06T12:44:09;3.40;;;1.10;;
29382;SDS011;16365;51.598;7.668;2022-09-06T12:46:36;1.67;;;0.77;;
29382;SDS011;16365;51.598;7.668;2022-09-06T12:51:37;3.22;;;1.15;;
29382;SDS011;16365;51.598;7.668;2022-09-06T12:54:15;1.52;;;0.93;;
29382;SDS011;16365;51.598;7.668;2022-09-06T12:56:42;1.38;;;1.00;;
29382;SDS011;16365;51.598;7.668;2022-09-06T12:59:19;2.92;;;1.10;;
29382;SDS011;16365;51.598;7.668;2022-09-06T13:01:50;1.13;;;0.90;;
29382;SDS011;16365;51.598;7.668;2022-09-06T13:04:23;2.38;;;1.20;;
29382;SDS011;16365;51.598;7.668;2022-09-06T13:06:55;3.58;;;1.75;;
29382;SDS011;16365;51.598;7.668;2022-09-06T13:09:23;2.50;;;0.98;;
29382;SDS011;16365;51.598;7.668;2022-09-06T13:11:52;5.95;;;1.15;;
29382;SDS011;16365;51.598;7.668;2022-09-06T13:14:27;3.47;;;1.20;;
29382;SDS011;16365;51.598;7.668;2022-09-06T13:16:56;1.63;;;1.08;;
29382;SDS011;16365;51.598;7.668;2022-09-06T13:19:30;1.55;;;1.10;;
29382;SDS011;16365;51.598;7.668;2022-09-06T13:21:57;6.90;;;1.10;;
29382;SDS011;16365;51.598;7.668;2022-09-06T13:24:26;2.28;;;1.17;;
29382;SDS011;16365;51.598;7.668;2022-09-06T13:27:22;4.20;;;1.45;;
29382;SDS011;16365;51.598;7.668;2022-09-06T13:32:21;4.00;;;1.08;;
29382;SDS011;16365;51.598;7.668;2022-09-06T13:34:48;4.47;;;1.48;;
29382;SDS011;16365;51.598;7.668;2022-09-06T13:37:22;7.72;;;1.77;;
29382;SDS011;16365;51.598;7.668;2022-09-06T13:39:51;6.75;;;1.20;;
29382;SDS011;16365;51.598;7.668;2022-09-06T13:44:56;7.87;;;1.20;;
29382;SDS011;16365;51.598;7.668;2022-09-06T13:47:27;4.53;;;1.30;;
29382;SDS011;16365;51.598;7.668;2022-09-06T13:49:54;3.63;;;1.40;;
29382;SDS011;16365;51.598;7.668;2022-09-06T13:52:21;5.32;;;1.40;;
29382;SDS011;16365;51.598;7.668;2022-09-06T13:54:48;2.78;;;1.35;;
29382;SDS011;16365;51.598;7.668;2022-09-06T13:57:14;4.85;;;1.20;;
29382;SDS011;16365;51.598;7.668;2022-09-06T13:59:48;2.90;;;1.27;;
29382;SDS011;16365;51.598;7.668;2022-09-06T14:02:15;3.03;;;1.30;;
29382;SDS011;16365;51.598;7.668;2022-09-06T14:04:42;1.70;;;1.08;;
29382;SDS011;16365;51.598;7.668;2022-09-06T14:07:09;4.82;;;1.63;;
29382;SDS011;16365;51.598;7.668;2022-09-06T14:09:36;4.47;;;1.30;;
29382;SDS011;16365;51.598;7.668;2022-09-06T14:12:02;2.20;;;1.27;;
29382;SDS011;16365;51.598;7.668;2022-09-06T14:16:58;5.43;;;1.42;;
29382;SDS011;16365;51.598;7.668;2022-09-06T14:19:24;4.85;;;1.80;;
29382;SDS011;16365;51.598;7.668;2022-09-06T14:21:51;2.38;;;1.27;;
29382;SDS011;16365;51.598;7.668;2022-09-06T14:24:17;3.20;;;1.30;;
29382;SDS011;16365;51.598;7.668;2022-09-06T14:26:44;6.68;;;1.40;;
29382;SDS011;16365;51.598;7.668;2022-09-06T14:29:10;4.60;;;1.35;;
29382;SDS011;16365;51.598;7.668;2022-09-06T14:31:37;6.78;;;1.50;;
29382;SDS011;16365;51.598;7.668;2022-09-06T14:34:04;3.77;;;1.70;;
29382;SDS011;16365;51.598;7.668;2022-09-06T14:36:31;4.15;;;1.27;;
29382;SDS011;16365;51.598;7.668;2022-09-06T14:38:58;8.85;;;1.27;;
29382;SDS011;16365;51.598;7.668;2022-09-06T14:41:26;3.88;;;1.25;;
29382;SDS011;16365;51.598;7.668;2022-09-06T14:43:53;5.50;;;1.63;;
29382;SDS011;16365;51.598;7.668;2022-09-06T14:46:22;2.72;;;1.23;;
29382;SDS011;16365;51.598;7.668;2022-09-06T14:48:57;2.85;;;1.25;;
29382;SDS011;16365;51.598;7.668;2022-09-06T14:51:28;1.85;;;1.17;;
29382;SDS011;16365;51.598;7.668;2022-09-06T14:54:05;1.67;;;1.17;;
29382;SDS011;16365;51.598;7.668;2022-09-06T14:56:34;2.20;;;1.10;;
29382;SDS011;16365;51.598;7.668;2022-09-06T14:59:01;3.70;;;1.10;;
29382;SDS011;16365;51.598;7.668;2022-09-06T15:01:29;5.28;;;1.58;;
29382;SDS011;16365;51.598;7.668;2022-09-06T15:04:03;2.80;;;1.23;;
29382;SDS011;16365;51.598;7.668;2022-09-06T15:06:32;4.43;;;1.38;;
29382;SDS011;16365;51.598;7.668;2022-09-06T15:13:56;3.13;;;1.35;;
29382;SDS011;16365;51.598;7.668;2022-09-06T15:16:23;2.60;;;1.20;;
29382;SDS011;16365;51.598;7.668;2022-09-06T15:18:50;5.65;;;1.50;;
29382;SDS011;16365;51.598;7.668;2022-09-06T15:21:16;2.05;;;1.05;;
29382;SDS011;16365;51.598;7.668;2022-09-06T15:23:43;4.15;;;1.15;;
29382;SDS011;16365;51.598;7.668;2022-09-06T15:26:10;1.45;;;1.10;;
29382;SDS011;16365;51.598;7.668;2022-09-06T15:28:39;10.38;;;1.77;;
29382;SDS011;16365;51.598;7.668;2022-09-06T15:31:07;44.28;;;3.60;;
29382;SDS011;16365;51.598;7.668;2022-09-06T15:33:35;44.60;;;3.75;;
29382;SDS011;16365;51.598;7.668;2022-09-06T15:36:03;25.50;;;2.85;;
29382;SDS011;16365;51.598;7.668;2022-09-06T15:38:32;4.18;;;1.52;;
29382;SDS011;16365;51.598;7.668;2022-09-06T15:41:09;7.65;;;1.38;;
29382;SDS011;16365;51.598;7.668;2022-09-06T15:43:38;3.03;;;1.50;;
29382;SDS011;16365;51.598;7.668;2022-09-06T15:46:07;5.18;;;1.60;;
29382;SDS011;16365;51.598;7.668;2022-09-06T15:48:38;4.30;;;1.35;;
29382;SDS011;16365;51.598;7.668;2022-09-06T15:51:09;1.77;;;1.10;;
29382;SDS011;16365;51.598;7.668;2022-09-06T15:53:37;32.03;;;2.05;;
29382;SDS011;16365;51.598;7.668;2022-09-06T15:56:05;4.88;;;1.52;;
29382;SDS011;16365;51.598;7.668;2022-09-06T15:58:33;4.97;;;1.38;;
29382;SDS011;16365;51.598;7.668;2022-09-06T16:03:30;4.00;;;1.60;;
29382;SDS011;16365;51.598;7.668;2022-09-06T16:06:01;4.72;;;1.63;;
29382;SDS011;16365;51.598;7.668;2022-09-06T16:08:50;4.75;;;1.52;;
29382;SDS011;16365;51.598;7.668;2022-09-06T16:11:21;3.03;;;1.50;;
29382;SDS011;16365;51.598;7.668;2022-09-06T16:13:47;4.10;;;1.70;;
29382;SDS011;16365;51.598;7.668;2022-09-06T16:16:14;3.50;;;1.50;;
29382;SDS011;16365;51.598;7.668;2022-09-06T16:18:42;5.85;;;1.73;;
29382;SDS011;16365;51.598;7.668;2022-09-06T16:21:16;4.15;;;1.63;;
29382;SDS011;16365;51.598;7.668;2022-09-06T16:23:48;5.30;;;1.60;;
29382;SDS011;16365;51.598;7.668;2022-09-06T16:26:21;2.65;;;1.50;;
29382;SDS011;16365;51.598;7.668;2022-09-06T16:28:49;2.70;;;1.50;;
29382;SDS011;16365;51.598;7.668;2022-09-06T16:31:18;3.35;;;1.70;;
29382;SDS011;16365;51.598;7.668;2022-09-06T16:33:46;3.72;;;1.40;;
29382;SDS011;16365;51.598;7.668;2022-09-06T16:36:14;3.35;;;1.60;;
29382;SDS011;16365;51.598;7.668;2022-09-06T16:38:41;4.22;;;1.58;;
29382;SDS011;16365;51.598;7.668;2022-09-06T16:41:12;6.78;;;1.70;;
29382;SDS011;16365;51.598;7.668;2022-09-06T16:43:41;3.80;;;1.75;;
29382;SDS011;16365;51.598;7.668;2022-09-06T16:46:08;2.60;;;1.55;;
29382;SDS011;16365;51.598;7.668;2022-09-06T16:48:36;3.70;;;1.70;;
29382;SDS011;16365;51.598;7.668;2022-09-06T16:51:12;3.90;;;1.63;;
29382;SDS011;16365;51.598;7.668;2022-09-06T16:53:42;4.13;;;2.28;;
29382;SDS011;16365;51.598;7.668;2022-09-06T16:56:10;4.47;;;1.85;;
29382;SDS011;16365;51.598;7.668;2022-09-06T16:58:40;5.80;;;2.53;;
29382;SDS011;16365;51.598;7.668;2022-09-06T17:01:08;4.35;;;1.90;;
29382;SDS011;16365;51.598;7.668;2022-09-06T17:03:35;3.55;;;1.50;;
29382;SDS011;16365;51.598;7.668;2022-09-06T17:06:03;6.65;;;2.25;;
29382;SDS011;16365;51.598;7.668;2022-09-06T17:08:30;4.53;;;1.77;;
29382;SDS011;16365;51.598;7.668;2022-09-06T17:11:02;7.00;;;1.97;;
29382;SDS011;16365;51.598;7.668;2022-09-06T17:13:30;3.13;;;1.70;;
29382;SDS011;16365;51.598;7.668;2022-09-06T17:15:57;3.42;;;1.60;;
29382;SDS011;16365;51.598;7.668;2022-09-06T17:18:47;4.10;;;1.60;;
29382;SDS011;16365;51.598;7.668;2022-09-06T17:21:14;2.95;;;1.70;;